Time;durP1;ratioP1;P1;durP2;ratioP2;P2;SDS_P1;SDS_P2;PMS_P1;PMS_P2;Temp;Humidity;BMP_temperature;BMP_pressure;BME280_temperature;BME280_humidity;BME280_pressure;Samples;Min_cycle;Max_cycle;Signal;HPM_P1;HPM_P2
2021/06/04 00:00:27;;;;;;;5.00;3.13;;;20.90;51.10;;;;;;3553556;40;20044;-68
2021/06/04 00:02:54;;;;;;;4.30;3.10;;;20.80;51.10;;;;;;3555641;40;20029;-69
2021/06/04 00:05:24;;;;;;;3.33;2.97;;;20.80;51.50;;;;;;3557890;40;20030;-69
2021/06/04 00:07:49;;;;;;;3.42;2.92;;;20.80;51.00;;;;;;3558745;40;20135;-69
2021/06/04 00:10:28;;;;;;;3.65;3.20;;;20.80;52.10;;;;;;3554141;40;20745;-69
2021/06/04 00:12:55;;;;;;;5.03;3.63;;;20.80;51.70;;;;;;3551433;40;20495;-69
2021/06/04 00:15:26;;;;;;;3.85;2.72;;;20.70;51.70;;;;;;3553074;40;20034;-69
2021/06/04 00:17:52;;;;;;;4.70;3.35;;;20.70;51.70;;;;;;3550735;40;20030;-69
2021/06/04 00:20:25;;;;;;;6.20;3.08;;;20.70;51.90;;;;;;3551941;40;20033;-69
2021/06/04 00:22:51;;;;;;;6.25;3.17;;;20.60;51.80;;;;;;3550703;40;20303;-69
2021/06/04 00:25:17;;;;;;;3.22;2.92;;;20.60;51.70;;;;;;3549551;40;20315;-68
2021/06/04 00:27:43;;;;;;;3.40;2.95;;;20.60;51.60;;;;;;3549877;40;20066;-69
2021/06/04 00:30:10;;;;;;;4.43;3.40;;;20.60;51.90;;;;;;3551256;40;20651;-69
2021/06/04 00:32:36;;;;;;;4.38;3.10;;;20.60;51.50;;;;;;3552367;40;20123;-69
2021/06/04 00:35:04;;;;;;;4.10;3.15;;;20.60;51.20;;;;;;3554286;40;20049;-69
2021/06/04 00:37:29;;;;;;;4.40;2.95;;;20.60;51.60;;;;;;3555292;40;20104;-68
2021/06/04 00:39:55;;;;;;;5.82;3.30;;;20.60;52.20;;;;;;3552331;40;20026;-69
2021/06/04 00:42:26;;;;;;;4.03;3.13;;;20.60;51.90;;;;;;3552335;40;20026;-69
2021/06/04 00:44:55;;;;;;;3.42;2.97;;;20.60;52.50;;;;;;3551513;40;20570;-68
2021/06/04 00:47:25;;;;;;;4.43;3.05;;;20.60;52.10;;;;;;3558916;40;20707;-68
2021/06/04 00:49:54;;;;;;;3.65;2.67;;;20.60;51.60;;;;;;3553050;40;20046;-69
2021/06/04 00:52:26;;;;;;;4.75;3.13;;;20.60;52.20;;;;;;3554604;40;20041;-69
2021/06/04 00:54:56;;;;;;;5.53;3.13;;;20.60;51.90;;;;;;3553305;40;20858;-69
2021/06/04 00:57:22;;;;;;;3.28;2.97;;;20.60;52.10;;;;;;3554149;40;20037;-69
2021/06/04 00:59:47;;;;;;;4.70;2.85;;;20.60;52.30;;;;;;3551655;40;20090;-69
2021/06/04 01:02:24;;;;;;;4.38;3.03;;;20.60;52.20;;;;;;3558258;40;20144;-69
2021/06/04 01:04:51;;;;;;;3.55;3.10;;;20.60;52.30;;;;;;3551491;40;20411;-69
2021/06/04 01:07:41;;;;;;;4.53;2.90;;;20.60;51.90;;;;;;3558378;40;20038;-69
2021/06/04 01:10:25;;;;;;;4.90;3.20;;;20.60;51.90;;;;;;3561115;40;20048;-69
2021/06/04 01:13:05;;;;;;;3.65;3.20;;;20.60;51.70;;;;;;3554868;40;20038;-68
2021/06/04 01:15:52;;;;;;;3.28;2.80;;;20.60;52.00;;;;;;3553276;40;20068;-68
2021/06/04 01:18:42;;;;;;;4.75;2.83;;;20.60;52.50;;;;;;3550075;40;20391;-69
2021/06/04 01:21:18;;;;;;;3.53;2.97;;;20.60;52.10;;;;;;3559329;40;20029;-69
2021/06/04 01:23:50;;;;;;;4.88;3.30;;;20.60;52.00;;;;;;3566555;40;20369;-69
2021/06/04 01:26:26;;;;;;;6.47;3.55;;;20.60;52.40;;;;;;3565189;40;20041;-69
2021/06/04 01:28:56;;;;;;;;;;;20.60;52.00;;;;;;3557090;40;20042;-69
2021/06/04 01:31:39;;;;;;;4.80;3.10;;;20.50;51.70;;;;;;3557885;40;19947;-69
2021/06/04 01:34:20;;;;;;;4.68;3.35;;;20.50;52.10;;;;;;3556912;40;20030;-68
2021/06/04 01:36:54;;;;;;;3.72;3.30;;;20.50;51.20;;;;;;3557334;40;20056;-69
2021/06/04 01:39:30;;;;;;;3.70;3.05;;;20.50;52.60;;;;;;3559422;40;20033;-69
2021/06/04 01:41:59;;;;;;;;;;;20.40;53.20;;;;;;3559815;40;20137;-69
2021/06/04 01:44:35;;;;;;;3.42;3.05;;;20.40;53.80;;;;;;3557984;40;19936;-69
2021/06/04 01:47:07;;;;;;;3.15;2.90;;;20.40;54.30;;;;;;3556730;40;20057;-69
2021/06/04 01:49:38;;;;;;;4.18;3.28;;;20.30;54.60;;;;;;3553223;40;20038;-69
2021/06/04 01:52:18;;;;;;;5.45;3.20;;;20.30;54.10;;;;;;3553370;40;20040;-69
2021/06/04 01:54:57;;;;;;;4.72;3.35;;;20.30;54.20;;;;;;3561242;40;20053;-69
2021/06/04 01:57:31;;;;;;;4.80;3.15;;;20.30;53.90;;;;;;3557799;40;20364;-69
2021/06/04 02:00:00;;;;;;;5.60;3.40;;;20.30;53.90;;;;;;3557334;40;20048;-69
2021/06/04 02:02:44;;;;;;;4.13;2.83;;;20.30;53.40;;;;;;3552486;40;20754;-69
2021/06/04 02:05:22;;;;;;;4.75;3.00;;;20.30;53.10;;;;;;3557669;40;20752;-68
2021/06/04 02:07:48;;;;;;;4.35;3.08;;;20.20;51.90;;;;;;3555674;40;20045;-69
2021/06/04 02:10:28;;;;;;;4.47;3.20;;;20.20;52.50;;;;;;3561190;40;20509;-69
2021/06/04 02:12:57;;;;;;;5.55;3.40;;;20.20;52.30;;;;;;3564902;40;20025;-69
2021/06/04 02:15:34;;;;;;;5.65;2.72;;;20.20;52.20;;;;;;3551409;40;20621;-69
2021/06/04 02:18:10;;;;;;;4.40;3.40;;;20.20;52.30;;;;;;3558880;40;20072;-68
2021/06/04 02:20:56;;;;;;;7.03;3.10;;;20.20;52.40;;;;;;3557488;40;20048;-69
2021/06/04 02:23:36;;;;;;;5.43;3.05;;;20.20;52.00;;;;;;3559365;40;20048;-69
2021/06/04 02:26:15;;;;;;;5.80;3.60;;;20.10;52.10;;;;;;3553262;40;20041;-69
2021/06/04 02:29:01;;;;;;;5.93;3.35;;;20.10;52.20;;;;;;3555332;40;20053;-69
2021/06/04 02:31:35;;;;;;;6.53;3.40;;;20.10;51.80;;;;;;3552103;40;20506;-69
2021/06/04 02:34:11;;;;;;;4.90;3.13;;;20.10;52.00;;;;;;3565915;40;20512;-68
2021/06/04 02:36:42;;;;;;;;;;;20.00;52.00;;;;;;3555203;40;20093;-69
2021/06/04 02:39:17;;;;;;;4.82;3.30;;;20.10;52.70;;;;;;3554553;40;20569;-69
2021/06/04 02:41:52;;;;;;;3.58;3.05;;;20.10;52.90;;;;;;3551932;40;20042;-69
2021/06/04 02:44:23;;;;;;;4.78;3.65;;;20.10;53.20;;;;;;3553946;40;20144;-68
2021/06/04 02:47:05;;;;;;;3.92;3.30;;;20.10;53.00;;;;;;3553968;40;20102;-68
2021/06/04 02:49:34;;;;;;;4.05;3.10;;;20.10;52.50;;;;;;3564159;40;20038;-68
2021/06/04 02:52:22;;;;;;;5.93;3.15;;;20.10;52.60;;;;;;3547891;40;20703;-68
2021/06/04 02:54:50;;;;;;;4.25;3.10;;;20.00;53.10;;;;;;3558726;40;20033;-69
2021/06/04 02:57:19;;;;;;;4.90;3.78;;;20.00;55.20;;;;;;3549767;40;20042;-68
2021/06/04 02:59:47;;;;;;;5.30;3.20;;;19.80;55.30;;;;;;3551228;40;20045;-68
2021/06/04 03:02:18;;;;;;;5.50;3.40;;;19.80;56.70;;;;;;3553390;40;20048;-69
2021/06/04 03:04:49;;;;;;;4.70;3.30;;;19.70;55.20;;;;;;3555369;40;20049;-68
2021/06/04 03:07:29;;;;;;;6.10;3.13;;;19.70;55.60;;;;;;3555476;40;20127;-69
2021/06/04 03:10:00;;;;;;;6.53;3.13;;;19.70;56.40;;;;;;3549663;40;20056;-69
2021/06/04 03:12:37;;;;;;;6.57;3.85;;;19.70;57.70;;;;;;3557038;40;20417;-69
2021/06/04 03:15:30;;;;;;;5.53;3.42;;;19.70;57.20;;;;;;3546358;40;20038;-68
2021/06/04 03:17:59;;;;;;;4.65;4.00;;;19.70;56.70;;;;;;3561001;40;20049;-68
2021/06/04 03:20:32;;;;;;;4.80;3.47;;;19.70;56.10;;;;;;3552492;40;20038;-69
2021/06/04 03:22:58;;;;;;;3.60;3.30;;;19.60;55.90;;;;;;3552496;40;20931;-68
2021/06/04 03:25:33;;;;;;;4.90;3.42;;;19.60;55.20;;;;;;3558564;40;20041;-69
2021/06/04 03:28:02;;;;;;;4.00;3.60;;;19.60;55.50;;;;;;3557078;40;20510;-69
2021/06/04 03:30:35;;;;;;;5.85;3.63;;;19.50;55.00;;;;;;3550264;40;20034;-69
2021/06/04 03:33:03;;;;;;;3.55;3.10;;;19.60;55.00;;;;;;3550400;40;20059;-69
2021/06/04 03:35:32;;;;;;;5.72;3.33;;;19.60;55.40;;;;;;3552049;40;20048;-68
2021/06/04 03:38:00;;;;;;;4.07;3.05;;;19.60;54.90;;;;;;3558917;40;20038;-68
2021/06/04 03:40:29;;;;;;;4.60;3.78;;;19.60;54.80;;;;;;3559967;40;20044;-69
2021/06/04 03:42:59;;;;;;;5.18;3.10;;;19.70;54.70;;;;;;3552865;40;20044;-68
2021/06/04 03:45:36;;;;;;;7.28;3.30;;;19.60;54.40;;;;;;3553523;40;20059;-68
2021/06/04 03:48:04;;;;;;;6.40;3.55;;;19.60;54.40;;;;;;3558511;40;20030;-68
2021/06/04 03:50:31;;;;;;;3.92;3.38;;;19.70;55.00;;;;;;3557290;40;20081;-68
2021/06/04 03:52:57;;;;;;;3.72;3.28;;;19.70;55.50;;;;;;3550728;40;20056;-69
2021/06/04 03:55:26;;;;;;;4.38;3.50;;;19.70;54.80;;;;;;3553054;40;20131;-68
2021/06/04 03:57:53;;;;;;;3.50;3.20;;;19.60;55.00;;;;;;3555237;40;20033;-68
2021/06/04 04:00:21;;;;;;;4.47;3.25;;;19.60;55.30;;;;;;3561326;40;20204;-68
2021/06/04 04:02:47;;;;;;;3.45;3.15;;;19.60;55.50;;;;;;3556037;40;20035;-68
2021/06/04 04:05:15;;;;;;;6.55;3.42;;;19.60;55.00;;;;;;3554234;40;20042;-68
2021/06/04 04:07:41;;;;;;;5.22;3.95;;;19.60;54.80;;;;;;3555907;40;20037;-68
2021/06/04 04:10:09;;;;;;;6.53;3.80;;;19.50;55.40;;;;;;3564390;40;20057;-68
2021/06/04 04:12:35;;;;;;;4.80;3.38;;;19.50;55.30;;;;;;3551453;40;20115;-68
2021/06/04 04:15:01;;;;;;;4.53;3.40;;;19.50;56.50;;;;;;3554146;40;20063;-68
2021/06/04 04:17:29;;;;;;;4.15;3.60;;;19.40;57.10;;;;;;3555708;40;20013;-68
2021/06/04 04:19:55;;;;;;;4.43;3.17;;;19.40;57.20;;;;;;3563783;40;20038;-68
2021/06/04 04:22:22;;;;;;;3.45;3.15;;;19.40;57.10;;;;;;3554819;40;20034;-68
2021/06/04 04:24:47;;;;;;;3.65;3.05;;;19.50;57.20;;;;;;3554126;40;20053;-68
2021/06/04 04:27:14;;;;;;;4.85;3.53;;;19.50;57.30;;;;;;3558096;40;20303;-68
2021/06/04 04:29:40;;;;;;;4.07;3.22;;;19.50;57.10;;;;;;3554695;40;20131;-68
2021/06/04 04:32:12;;;;;;;4.38;3.40;;;19.50;56.80;;;;;;3554676;40;20022;-68
2021/06/04 04:34:42;;;;;;;3.97;3.20;;;19.60;57.20;;;;;;3556473;40;20038;-69
2021/06/04 04:37:08;;;;;;;9.07;3.80;;;19.60;57.30;;;;;;3553023;40;20057;-68
2021/06/04 04:39:37;;;;;;;8.13;4.50;;;19.60;58.50;;;;;;3552952;40;20050;-69
2021/06/04 04:42:06;;;;;;;6.35;5.00;;;19.50;64.40;;;;;;3552083;40;20363;-69
2021/06/04 04:44:35;;;;;;;5.82;4.30;;;19.40;67.00;;;;;;3550163;40;20053;-69
2021/06/04 04:47:04;;;;;;;6.50;4.40;;;19.20;68.30;;;;;;3549922;40;20399;-69
2021/06/04 04:49:30;;;;;;;5.28;4.50;;;19.00;70.10;;;;;;3554028;40;20055;-69
2021/06/04 04:51:56;;;;;;;8.73;4.88;;;18.80;70.60;;;;;;3554019;40;20052;-69
2021/06/04 04:54:22;;;;;;;5.45;4.53;;;18.50;72.70;;;;;;3553224;40;20405;-69
2021/06/04 04:56:48;;;;;;;7.32;5.45;;;18.20;73.50;;;;;;3557147;40;20123;-69
2021/06/04 04:59:14;;;;;;;8.90;5.13;;;18.00;74.70;;;;;;3553027;40;20491;-69
2021/06/04 05:01:41;;;;;;;6.65;5.65;;;17.80;75.60;;;;;;3557402;40;20033;-69
2021/06/04 05:04:07;;;;;;;7.03;5.22;;;17.70;76.60;;;;;;3560164;40;20115;-69
2021/06/04 05:06:35;;;;;;;5.78;4.53;;;17.50;76.60;;;;;;3558714;40;20030;-69
2021/06/04 05:09:02;;;;;;;7.05;5.18;;;17.50;78.40;;;;;;3556403;40;20032;-69
2021/06/04 05:11:28;;;;;;;8.00;5.63;;;17.40;77.70;;;;;;3556300;40;20086;-69
2021/06/04 05:13:54;;;;;;;6.72;5.20;;;17.30;76.40;;;;;;3561761;40;20116;-69
2021/06/04 05:16:19;;;;;;;8.52;5.47;;;17.20;77.50;;;;;;3557306;40;20464;-69
2021/06/04 05:18:46;;;;;;;7.68;5.18;;;17.30;78.80;;;;;;3559395;40;20037;-69
2021/06/04 05:21:16;;;;;;;6.45;5.70;;;17.20;79.90;;;;;;3551174;40;20090;-70
2021/06/04 05:23:42;;;;;;;6.60;5.78;;;17.20;80.90;;;;;;3555056;40;20107;-69
2021/06/04 05:26:08;;;;;;;6.53;5.75;;;17.30;81.40;;;;;;3551427;40;20065;-69
2021/06/04 05:28:34;;;;;;;7.25;5.60;;;17.30;82.00;;;;;;3554262;40;20562;-69
2021/06/04 05:31:05;;;;;;;8.32;6.28;;;17.40;81.00;;;;;;3562503;40;20048;-69
2021/06/04 05:33:36;;;;;;;7.57;5.90;;;17.30;78.10;;;;;;3556931;40;20081;-69
2021/06/04 05:36:08;;;;;;;5.88;5.28;;;17.40;79.10;;;;;;3557634;40;20040;-69
2021/06/04 05:38:34;;;;;;;6.20;5.50;;;17.40;78.90;;;;;;3552899;40;20038;-69
2021/06/04 05:41:00;;;;;;;6.55;5.78;;;17.40;78.40;;;;;;3550907;40;20042;-69
2021/06/04 05:43:32;;;;;;;7.55;5.55;;;17.50;78.00;;;;;;3552079;40;20090;-68
2021/06/04 05:45:59;;;;;;;5.82;5.22;;;17.60;78.20;;;;;;3551585;40;20127;-69
2021/06/04 05:48:26;;;;;;;8.57;5.93;;;17.60;74.20;;;;;;3555777;40;20036;-70
2021/06/04 05:50:55;;;;;;;6.57;5.25;;;17.70;76.00;;;;;;3554023;40;20136;-69
2021/06/04 05:53:26;;;;;;;8.32;5.30;;;17.80;75.10;;;;;;3552991;40;20033;-69
2021/06/04 05:55:52;;;;;;;10.10;5.57;;;17.80;72.60;;;;;;3554614;40;20106;-69
2021/06/04 05:58:20;;;;;;;6.85;5.63;;;17.90;74.60;;;;;;3547947;40;20030;-69
2021/06/04 06:00:50;;;;;;;7.57;5.22;;;17.90;72.10;;;;;;3552753;40;20453;-69
2021/06/04 06:03:20;;;;;;;8.52;5.15;;;18.00;74.00;;;;;;3555254;40;20506;-69
2021/06/04 06:05:46;;;;;;;6.53;5.28;;;18.00;76.30;;;;;;3563549;40;20036;-69
2021/06/04 06:08:12;;;;;;;5.38;4.85;;;18.00;74.50;;;;;;3554023;40;20314;-68
2021/06/04 06:10:38;;;;;;;6.63;5.20;;;18.00;73.60;;;;;;3553372;40;20127;-69
2021/06/04 06:13:04;;;;;;;6.45;5.80;;;18.00;76.30;;;;;;3552125;40;20030;-69
2021/06/04 06:15:31;;;;;;;8.35;5.20;;;18.00;77.00;;;;;;3554444;40;20053;-68
2021/06/04 06:17:57;;;;;;;7.75;4.78;;;18.10;75.80;;;;;;3557980;40;20038;-69
2021/06/04 06:20:28;;;;;;;7.20;5.60;;;18.10;76.30;;;;;;3553895;40;20040;-68
2021/06/04 06:22:54;;;;;;;7.78;5.32;;;18.10;76.90;;;;;;3543045;40;20620;-69
2021/06/04 06:25:26;;;;;;;6.18;5.57;;;18.20;78.00;;;;;;3553901;40;20061;-68
2021/06/04 06:27:51;;;;;;;9.02;5.47;;;18.20;77.40;;;;;;3553888;40;20058;-69
2021/06/04 06:30:22;;;;;;;5.53;4.97;;;18.20;74.50;;;;;;3552119;40;20309;-69
2021/06/04 06:32:48;;;;;;;7.05;5.10;;;18.20;75.70;;;;;;3550370;40;20335;-68
2021/06/04 06:35:16;;;;;;;9.98;5.40;;;18.30;73.30;;;;;;3549573;40;20030;-68
2021/06/04 06:37:42;;;;;;;8.07;5.10;;;18.30;72.60;;;;;;3551385;40;20101;-69
2021/06/04 06:40:10;;;;;;;7.38;5.70;;;18.30;72.50;;;;;;3558899;40;20029;-69
2021/06/04 06:42:36;;;;;;;7.45;5.43;;;18.40;74.80;;;;;;3553092;40;20025;-68
2021/06/04 06:45:04;;;;;;;6.47;5.57;;;18.40;74.40;;;;;;3554623;40;20037;-69
2021/06/04 06:47:30;;;;;;;9.63;5.40;;;18.40;74.90;;;;;;3556460;40;20030;-68
2021/06/04 06:49:55;;;;;;;6.85;5.35;;;18.50;75.10;;;;;;3557314;40;20473;-68
2021/06/04 06:52:21;;;;;;;9.27;4.95;;;18.50;74.50;;;;;;3558843;40;20025;-68
2021/06/04 06:54:47;;;;;;;6.18;4.70;;;18.60;74.80;;;;;;3559828;40;20025;-68
2021/06/04 06:57:12;;;;;;;5.93;5.32;;;18.70;74.60;;;;;;3558027;40;20024;-68
2021/06/04 06:59:38;;;;;;;6.90;5.50;;;18.80;74.10;;;;;;3556937;40;20033;-69
2021/06/04 07:02:08;;;;;;;7.47;5.50;;;18.90;73.30;;;;;;3554635;40;20134;-69
2021/06/04 07:04:34;;;;;;;8.13;5.20;;;19.10;72.20;;;;;;3552951;40;20026;-69
2021/06/04 07:07:01;;;;;;;6.43;5.25;;;19.30;70.50;;;;;;3552963;40;20022;-68
2021/06/04 07:09:27;;;;;;;9.23;5.15;;;19.40;67.80;;;;;;3553545;40;20042;-69
2021/06/04 07:11:55;;;;;;;6.40;5.15;;;19.50;69.10;;;;;;3550280;40;20029;-69
2021/06/04 07:14:26;;;;;;;5.97;4.88;;;19.60;68.10;;;;;;3550831;40;20037;-68
2021/06/04 07:16:52;;;;;;;7.13;5.25;;;19.70;68.20;;;;;;3552057;40;20038;-68
2021/06/04 07:19:17;;;;;;;6.57;5.20;;;19.70;67.70;;;;;;3552716;40;20063;-69
2021/06/04 07:21:45;;;;;;;6.68;4.10;;;19.80;68.20;;;;;;3553595;40;20699;-70
2021/06/04 07:24:14;;;;;;;7.25;4.70;;;19.90;67.40;;;;;;3553322;40;20047;-69
2021/06/04 07:26:42;;;;;;;5.72;4.57;;;19.90;66.50;;;;;;3552000;40;20139;-69
2021/06/04 07:29:08;;;;;;;6.32;4.80;;;20.00;66.40;;;;;;3557878;40;20046;-69
2021/06/04 07:31:34;;;;;;;11.23;4.88;;;20.00;67.10;;;;;;3559319;40;20605;-70
2021/06/04 07:34:03;;;;;;;7.05;5.47;;;20.10;65.40;;;;;;3551984;40;20037;-69
2021/06/04 07:36:40;;;;;;;11.90;5.00;;;20.10;65.80;;;;;;3551137;40;20452;-69
2021/06/04 07:39:08;;;;;;;6.13;4.93;;;20.30;68.20;;;;;;3552533;40;20046;-69
2021/06/04 07:41:35;;;;;;;6.20;4.53;;;20.40;67.70;;;;;;3552613;40;20680;-69
2021/06/04 07:44:01;;;;;;;13.77;5.20;;;20.60;66.80;;;;;;3549973;40;20050;-69
2021/06/04 07:46:28;;;;;;;10.23;4.93;;;20.70;65.60;;;;;;3551187;40;20034;-72
2021/06/04 07:48:54;;;;;;;7.32;4.72;;;20.50;63.60;;;;;;3555846;40;20036;-68
2021/06/04 07:51:28;;;;;;;5.95;4.72;;;20.60;63.00;;;;;;3554636;40;20045;-68
2021/06/04 07:53:53;;;;;;;7.55;4.90;;;20.60;65.10;;;;;;3551606;40;20045;-67
2021/06/04 07:56:20;;;;;;;6.22;4.30;;;20.60;64.00;;;;;;3552671;40;20056;-67
2021/06/04 07:58:47;;;;;;;4.50;4.07;;;20.60;67.30;;;;;;3552702;40;20069;-66
2021/06/04 08:01:15;;;;;;;6.30;4.43;;;20.50;65.50;;;;;;3553509;40;20034;-66
2021/06/04 08:03:41;;;;;;;6.03;4.50;;;20.50;65.30;;;;;;3555965;40;20061;-67
2021/06/04 08:06:08;;;;;;;8.38;5.38;;;20.50;64.80;;;;;;3557332;40;20070;-67
2021/06/04 08:08:36;;;;;;;6.35;5.03;;;20.50;67.00;;;;;;3557766;40;20044;-67
2021/06/04 08:11:04;;;;;;;6.10;5.00;;;20.20;70.60;;;;;;3555807;40;20093;-67
2021/06/04 08:13:30;;;;;;;6.13;5.30;;;20.00;72.10;;;;;;3552052;40;20033;-67
2021/06/04 08:16:00;;;;;;;7.22;5.60;;;19.70;73.80;;;;;;3551977;40;20048;-67
2021/06/04 08:18:29;;;;;;;9.40;6.10;;;19.40;73.50;;;;;;3551036;40;20629;-67
2021/06/04 08:20:56;;;;;;;8.35;5.70;;;19.30;78.10;;;;;;3551077;40;20116;-68
2021/06/04 08:23:28;;;;;;;7.30;5.95;;;19.30;77.80;;;;;;3549012;40;20045;-73
2021/06/04 08:25:59;;;;;;;7.30;6.30;;;19.40;78.90;;;;;;3556865;40;20538;-69
2021/06/04 08:28:28;;;;;;;7.65;5.68;;;19.50;78.40;;;;;;3556965;40;20138;-68
2021/06/04 08:30:54;;;;;;;9.52;6.63;;;19.70;78.60;;;;;;3550002;40;20087;-68
2021/06/04 08:33:29;;;;;;;9.00;5.60;;;19.90;76.80;;;;;;3551438;40;20041;-67
2021/06/04 08:35:59;;;;;;;10.13;5.68;;;20.10;75.90;;;;;;3551812;40;20447;-68
2021/06/04 08:38:29;;;;;;;6.50;5.40;;;20.40;75.10;;;;;;3559093;40;20046;-68
2021/06/04 08:41:01;;;;;;;7.28;5.68;;;20.50;75.10;;;;;;3550897;40;20147;-67
2021/06/04 08:44:02;;;;;;;7.90;5.60;;;20.60;74.30;;;;;;3546555;40;20096;-67
2021/06/04 08:46:36;;;;;;;6.60;4.85;;;20.70;74.20;;;;;;3549513;40;20034;-67
2021/06/04 08:49:08;;;;;;;6.85;4.60;;;20.70;71.60;;;;;;3561425;40;20070;-67
2021/06/04 08:51:41;;;;;;;13.27;5.50;;;20.70;73.20;;;;;;3552491;40;20123;-67
2021/06/04 08:54:31;;;;;;;6.13;5.00;;;20.70;72.30;;;;;;3553239;40;20026;-68
2021/06/04 08:57:31;;;;;;;6.65;5.28;;;20.70;71.40;;;;;;3559508;40;20331;-67
2021/06/04 08:59:58;;;;;;;5.68;4.93;;;20.90;70.80;;;;;;3553537;40;20101;-67
2021/06/04 09:02:41;;;;;;;8.95;5.25;;;21.10;70.10;;;;;;3548512;40;20044;-67
2021/06/04 09:05:39;;;;;;;5.22;4.72;;;21.30;70.30;;;;;;3556820;40;20029;-67
2021/06/04 09:08:10;;;;;;;5.82;4.90;;;21.50;69.10;;;;;;3553826;40;20048;-66
2021/06/04 09:10:48;;;;;;;7.05;4.80;;;21.50;68.00;;;;;;3554080;40;20132;-67
2021/06/04 09:13:36;;;;;;;7.57;5.18;;;21.60;67.50;;;;;;3554002;40;20038;-67
2021/06/04 09:16:10;;;;;;;6.38;5.03;;;21.50;65.50;;;;;;3553639;40;20078;-67
2021/06/04 09:18:56;;;;;;;7.25;4.65;;;21.60;66.80;;;;;;3557879;40;20025;-68
2021/06/04 09:21:26;;;;;;;7.07;5.70;;;21.60;66.30;;;;;;3548799;40;20070;-67
2021/06/04 09:23:53;;;;;;;10.40;5.25;;;21.60;66.50;;;;;;3551523;40;20431;-67
2021/06/04 09:26:21;;;;;;;6.93;5.25;;;21.50;65.80;;;;;;3554712;40;20331;-67
2021/06/04 09:29:05;;;;;;;7.38;5.13;;;21.50;67.00;;;;;;3554426;40;20053;-67
2021/06/04 09:31:38;;;;;;;6.90;5.30;;;21.50;65.50;;;;;;3561310;40;20073;-67
2021/06/04 09:34:18;;;;;;;6.50;4.80;;;21.60;66.20;;;;;;3552476;40;20049;-67
2021/06/04 09:36:54;;;;;;;6.40;5.07;;;21.60;65.50;;;;;;3551224;40;20169;-67
2021/06/04 09:39:43;;;;;;;7.05;4.97;;;21.70;67.40;;;;;;3551448;40;20749;-67
2021/06/04 09:42:46;;;;;;;8.15;4.65;;;21.80;66.40;;;;;;3556052;40;20074;-67
2021/06/04 09:45:21;;;;;;;5.90;4.85;;;21.80;65.20;;;;;;3556177;40;20191;-67
2021/06/04 09:48:08;;;;;;;8.45;5.57;;;21.90;63.00;;;;;;3553496;40;20032;-67
2021/06/04 09:50:46;;;;;;;10.18;5.50;;;22.10;64.40;;;;;;3553867;40;20135;-67
2021/06/04 09:53:18;;;;;;;7.70;5.20;;;22.20;61.80;;;;;;3554357;40;20033;-68
2021/06/04 09:55:51;;;;;;;9.60;5.35;;;22.20;62.50;;;;;;3558274;40;20053;-67
2021/06/04 09:58:27;;;;;;;7.50;5.15;;;22.20;61.50;;;;;;3548488;40;20036;-67
2021/06/04 10:01:07;;;;;;;7.50;5.05;;;22.20;63.20;;;;;;3558935;40;20034;-67
2021/06/04 10:03:42;;;;;;;6.13;4.97;;;22.30;62.90;;;;;;3564289;40;20099;-68
2021/06/04 10:06:07;;;;;;;9.13;4.90;;;22.30;61.60;;;;;;3555002;40;20034;-67
2021/06/04 10:08:55;;;;;;;6.18;4.95;;;22.40;59.90;;;;;;3561877;40;20037;-67
2021/06/04 10:11:29;;;;;;;6.72;4.97;;;22.60;62.30;;;;;;3556697;40;20048;-67
2021/06/04 10:14:06;;;;;;;7.57;5.13;;;22.70;60.10;;;;;;3565075;40;20113;-68
2021/06/04 10:17:15;;;;;;;7.68;5.10;;;22.90;60.40;;;;;;3549088;40;20037;-68
2021/06/04 10:19:36;;;;;;;7.20;4.85;;;22.90;57.80;;;;;;3550540;40;20030;-68
2021/06/04 10:22:05;;;;;;;6.93;5.32;;;23.10;58.50;;;;;;3552204;40;20033;-67
2021/06/04 10:24:36;;;;;;;7.50;4.75;;;23.20;59.60;;;;;;3556375;40;20120;-67
2021/06/04 10:27:09;;;;;;;5.60;4.85;;;23.10;59.00;;;;;;3555153;40;20703;-67
2021/06/04 10:29:35;;;;;;;8.13;4.50;;;23.10;59.60;;;;;;3557466;40;20097;-67
2021/06/04 10:32:18;;;;;;;6.07;4.43;;;23.10;59.30;;;;;;3558698;40;20037;-67
2021/06/04 10:34:52;;;;;;;11.77;5.05;;;23.10;59.40;;;;;;3552404;40;20581;-67
2021/06/04 10:37:26;;;;;;;6.45;4.60;;;23.10;59.40;;;;;;3552902;40;20050;-67
2021/06/04 10:40:03;;;;;;;9.05;5.35;;;23.10;59.30;;;;;;3554865;40;20049;-68
2021/06/04 10:43:07;;;;;;;6.82;4.22;;;23.10;59.00;;;;;;3556691;40;20033;-67
2021/06/04 10:45:41;;;;;;;6.18;4.68;;;23.20;60.00;;;;;;3552594;40;20049;-67
2021/06/04 10:48:28;;;;;;;11.13;5.05;;;23.30;58.90;;;;;;3553549;40;20023;-66
2021/06/04 10:51:23;;;;;;;7.63;4.60;;;23.30;58.00;;;;;;3550566;40;20033;-67
2021/06/04 10:54:05;;;;;;;8.73;5.05;;;23.40;57.20;;;;;;3552456;40;20404;-67
2021/06/04 10:56:39;;;;;;;10.38;4.70;;;23.40;58.60;;;;;;3553109;40;20057;-66
2021/06/04 10:59:32;;;;;;;7.97;5.25;;;23.60;57.50;;;;;;3552791;40;20497;-66
2021/06/04 11:02:26;;;;;;;7.28;5.10;;;23.50;57.30;;;;;;3553549;40;20110;-67
2021/06/04 11:05:01;;;;;;;7.50;4.55;;;23.50;57.20;;;;;;3552800;40;20026;-66
2021/06/04 11:07:44;;;;;;;5.70;5.15;;;23.50;58.90;;;;;;3552625;40;20367;-67
2021/06/04 11:10:23;;;;;;;12.00;5.07;;;23.70;57.90;;;;;;3553348;40;20041;-66
2021/06/04 11:12:59;;;;;;;5.97;4.75;;;23.60;57.40;;;;;;3564148;40;20033;-66
2021/06/04 11:15:47;;;;;;;6.60;5.05;;;23.70;57.60;;;;;;3555808;40;20044;-67
2021/06/04 11:18:45;;;;;;;6.20;5.05;;;23.70;56.90;;;;;;3552717;40;20400;-68
2021/06/04 11:21:40;;;;;;;6.88;4.63;;;23.60;57.80;;;;;;3553385;40;20041;-67
2021/06/04 11:24:13;;;;;;;8.20;5.20;;;23.70;58.30;;;;;;3556426;40;20029;-67
2021/06/04 11:26:50;;;;;;;7.35;5.07;;;23.80;57.30;;;;;;3557845;40;20038;-68
2021/06/04 11:29:30;;;;;;;5.70;4.90;;;24.00;57.90;;;;;;3553479;40;20403;-67
2021/06/04 11:32:12;;;;;;;11.43;5.00;;;24.20;57.90;;;;;;3558674;40;20379;-67
2021/06/04 11:35:04;;;;;;;10.18;5.22;;;24.10;55.60;;;;;;3553153;40;20025;-67
2021/06/04 11:37:56;;;;;;;8.30;5.18;;;24.10;56.70;;;;;;3553437;40;20026;-67
2021/06/04 11:40:29;;;;;;;7.07;5.35;;;24.20;56.40;;;;;;3553988;40;20034;-68
2021/06/04 11:43:12;;;;;;;6.10;5.15;;;24.30;56.10;;;;;;3551868;40;20045;-65
2021/06/04 11:45:39;;;;;;;5.90;4.97;;;24.40;56.70;;;;;;3557261;40;20037;-68
2021/06/04 11:48:20;;;;;;;9.93;5.28;;;24.40;56.20;;;;;;3563734;40;20038;-67
2021/06/04 11:50:48;;;;;;;7.10;5.40;;;24.30;57.40;;;;;;3547088;40;20041;-67
2021/06/04 11:53:26;;;;;;;6.38;5.30;;;24.20;57.00;;;;;;3549090;40;20040;-67
2021/06/04 11:55:55;;;;;;;8.85;5.65;;;24.20;56.50;;;;;;3554903;40;20053;-67
2021/06/04 11:58:29;;;;;;;9.20;5.32;;;24.30;56.90;;;;;;3553969;40;20038;-68
2021/06/04 12:01:23;;;;;;;7.00;5.20;;;24.40;56.70;;;;;;3552516;40;20045;-67
2021/06/04 12:04:11;;;;;;;8.00;5.00;;;24.70;56.70;;;;;;3552107;40;20045;-68
2021/06/04 12:06:50;;;;;;;6.53;5.57;;;24.70;54.70;;;;;;3558476;40;20126;-69
2021/06/04 12:09:31;;;;;;;5.10;4.43;;;24.50;54.10;;;;;;3564925;40;20081;-68
2021/06/04 12:12:15;;;;;;;7.95;4.53;;;24.40;54.80;;;;;;3562903;40;20077;-65
2021/06/04 12:15:01;;;;;;;11.32;5.22;;;24.30;55.00;;;;;;3553238;40;20042;-66
2021/06/04 12:17:39;;;;;;;5.97;4.20;;;24.40;55.70;;;;;;3553539;40;20044;-66
2021/06/04 12:20:15;;;;;;;4.28;3.88;;;24.60;52.40;;;;;;3555043;40;20026;-67
2021/06/04 12:22:51;;;;;;;8.05;4.53;;;24.70;51.90;;;;;;3562327;40;20617;-67
2021/06/04 12:25:38;;;;;;;4.07;3.67;;;24.80;50.90;;;;;;3551630;40;20057;-66
2021/06/04 12:28:08;;;;;;;7.35;4.18;;;24.70;51.70;;;;;;3551508;40;20042;-67
2021/06/04 12:30:43;;;;;;;6.82;4.13;;;24.90;52.10;;;;;;3545705;40;20125;-67
2021/06/04 12:33:09;;;;;;;7.13;3.90;;;24.80;51.30;;;;;;3553975;40;20044;-66
2021/06/04 12:35:45;;;;;;;5.45;4.40;;;25.00;51.00;;;;;;3553800;40;20033;-67
2021/06/04 12:38:34;;;;;;;6.97;4.50;;;25.10;51.30;;;;;;3552313;40;20026;-66
2021/06/04 12:41:03;;;;;;;4.40;3.95;;;25.00;50.90;;;;;;3550760;40;20042;-67
2021/06/04 12:43:31;;;;;;;4.45;4.03;;;25.10;51.70;;;;;;3550422;40;20033;-66
2021/06/04 12:46:22;;;;;;;6.60;4.00;;;25.10;50.90;;;;;;3551136;40;20084;-65
2021/06/04 12:49:09;;;;;;;7.40;4.65;;;25.20;51.30;;;;;;3551558;40;20042;-67
2021/06/04 12:51:41;;;;;;;9.65;5.18;;;25.30;50.60;;;;;;3553981;40;20029;-67
2021/06/04 12:54:09;;;;;;;8.98;6.15;;;25.40;51.50;;;;;;3555031;40;20072;-67
2021/06/04 12:56:51;;;;;;;7.75;4.32;;;25.40;50.00;;;;;;3562876;40;20430;-67
2021/06/04 12:59:25;;;;;;;7.68;4.82;;;25.40;51.30;;;;;;3556580;40;20042;-67
2021/06/04 13:02:02;;;;;;;5.28;4.47;;;25.60;50.90;;;;;;3555525;40;20030;-67
2021/06/04 13:04:49;;;;;;;4.55;4.15;;;25.80;50.00;;;;;;3549682;40;20033;-67
2021/06/04 13:07:28;;;;;;;6.10;4.03;;;25.80;49.40;;;;;;3550437;40;20516;-67
2021/06/04 13:10:05;;;;;;;4.55;3.88;;;25.80;50.10;;;;;;3555135;40;20124;-67
2021/06/04 13:12:33;;;;;;;7.63;4.63;;;25.90;50.40;;;;;;3554071;40;20046;-67
2021/06/04 13:15:16;;;;;;;7.57;4.82;;;26.10;49.30;;;;;;3556515;40;20061;-66
2021/06/04 13:17:54;;;;;;;5.88;3.97;;;26.10;49.20;;;;;;3551768;40;20026;-67